Time;durP1;ratioP1;P1;durP2;ratioP2;P2;SDS_P1;SDS_P2;PMS_P1;PMS_P2;Temp;Humidity;BMP_temperature;BMP_pressure;BME280_temperature;BME280_humidity;BME280_pressure;Samples;Min_cycle;Max_cycle;Signal;HPM_P1;HPM_P2
2022/04/12 00:00:41;;;;;;;7.83;3.57;;;5.20;99.90;;;;;;5071392;28;20223;-67
2022/04/12 00:03:08;;;;;;;7.90;3.03;;;5.20;99.90;;;;;;5071367;28;20209;-67
2022/04/12 00:05:36;;;;;;;7.93;3.20;;;5.10;99.90;;;;;;5071085;28;20216;-67
2022/04/12 00:08:05;;;;;;;8.37;2.93;;;5.10;99.90;;;;;;5070987;28;20230;-67
2022/04/12 00:10:33;;;;;;;5.37;3.30;;;5.10;99.90;;;;;;5071012;28;20215;-67
2022/04/12 00:13:01;;;;;;;6.10;3.00;;;5.10;99.90;;;;;;5071363;28;20201;-68
2022/04/12 00:15:28;;;;;;;7.80;2.90;;;5.10;99.90;;;;;;5071269;28;20224;-67
2022/04/12 00:20:40;;;;;;;6.23;2.87;;;5.00;99.90;;;;;;5071067;28;20310;-66
2022/04/12 00:23:08;;;;;;;5.80;2.73;;;5.00;99.90;;;;;;5071340;28;20205;-68
2022/04/12 00:25:35;;;;;;;5.53;3.07;;;5.00;99.90;;;;;;5071006;28;20312;-67
2022/04/12 00:28:02;;;;;;;6.67;3.00;;;5.00;99.90;;;;;;5070982;28;20221;-67
2022/04/12 00:30:30;;;;;;;7.70;3.20;;;5.00;99.90;;;;;;5070862;28;20244;-68
2022/04/12 00:32:57;;;;;;;4.77;2.93;;;5.00;99.90;;;;;;5071299;28;20559;-67
2022/04/12 00:35:25;;;;;;;7.53;2.80;;;5.00;99.90;;;;;;5071049;28;20209;-67
2022/04/12 00:37:52;;;;;;;5.10;3.07;;;4.90;99.90;;;;;;5071111;28;20764;-67
2022/04/12 00:40:24;;;;;;;5.33;2.90;;;4.90;99.90;;;;;;5071021;28;20617;-66
2022/04/12 00:42:51;;;;;;;6.57;2.97;;;4.90;99.90;;;;;;5072621;28;20238;-67
2022/04/12 00:45:19;;;;;;;6.50;3.20;;;4.90;99.90;;;;;;5074727;28;20565;-67
2022/04/12 00:47:46;;;;;;;5.90;2.80;;;4.90;99.90;;;;;;5074332;28;20227;-67
2022/04/12 00:50:14;;;;;;;4.87;2.90;;;4.90;99.90;;;;;;5074692;28;20204;-68
2022/04/12 00:52:45;;;;;;;6.43;2.87;;;4.90;99.90;;;;;;5074506;28;20213;-67
2022/04/12 00:55:12;;;;;;;6.80;3.10;;;4.90;99.90;;;;;;5074661;28;20209;-68
2022/04/12 00:57:42;;;;;;;5.37;2.87;;;4.90;99.90;;;;;;5074508;28;20201;-69
2022/04/12 01:00:11;;;;;;;7.73;2.73;;;4.90;99.90;;;;;;5074625;28;20227;-67
2022/04/12 01:02:39;;;;;;;7.20;3.23;;;4.80;99.90;;;;;;5074200;28;20204;-69
2022/04/12 01:05:07;;;;;;;4.93;2.80;;;4.80;99.90;;;;;;5074100;28;20209;-68
2022/04/12 01:07:36;;;;;;;5.83;2.90;;;4.80;99.90;;;;;;5073563;28;20208;-68
2022/04/12 01:10:04;;;;;;;6.63;3.20;;;4.80;99.90;;;;;;5074347;28;20204;-68
2022/04/12 01:12:38;;;;;;;6.70;2.97;;;4.90;99.90;;;;;;5074026;28;20201;-68
2022/04/12 01:15:13;;;;;;;5.87;3.27;;;4.80;99.90;;;;;;5074018;28;20228;-68
2022/04/12 01:17:40;;;;;;;6.50;3.23;;;4.80;99.90;;;;;;5074005;28;20209;-67
2022/04/12 01:20:08;;;;;;;7.33;3.20;;;4.80;99.90;;;;;;5073962;28;20568;-67
2022/04/12 01:22:40;;;;;;;5.63;3.20;;;4.80;99.90;;;;;;5073520;28;20211;-69
2022/04/12 01:25:08;;;;;;;7.07;3.17;;;4.80;99.90;;;;;;5074055;28;20539;-67
2022/04/12 01:27:35;;;;;;;7.50;3.70;;;4.80;99.90;;;;;;5073522;28;20205;-68
2022/04/12 01:30:02;;;;;;;6.70;3.13;;;4.80;99.90;;;;;;5073621;28;20236;-69
2022/04/12 01:32:29;;;;;;;8.00;3.50;;;4.80;99.90;;;;;;5073629;28;20200;-67
2022/04/12 01:34:55;;;;;;;8.03;3.60;;;4.70;99.90;;;;;;5073576;28;20291;-68
2022/04/12 01:37:22;;;;;;;9.40;2.97;;;4.80;99.90;;;;;;5073233;28;20219;-67
2022/04/12 01:39:49;;;;;;;5.57;2.73;;;4.80;99.90;;;;;;5073580;28;20684;-68
2022/04/12 01:42:17;;;;;;;5.73;2.90;;;4.80;99.90;;;;;;5073195;28;20221;-68
2022/04/12 01:44:44;;;;;;;4.13;3.10;;;4.80;99.90;;;;;;5073553;28;20211;-68
2022/04/12 01:47:10;;;;;;;4.93;3.10;;;4.80;99.90;;;;;;5073577;28;20207;-68
2022/04/12 01:49:37;;;;;;;4.43;2.73;;;4.70;99.90;;;;;;5073548;28;20225;-67
2022/04/12 01:52:05;;;;;;;5.63;3.00;;;4.70;99.90;;;;;;5073467;28;20212;-69
2022/04/12 01:54:31;;;;;;;7.67;3.20;;;4.70;99.90;;;;;;5073258;28;20200;-68
2022/04/12 01:56:58;;;;;;;6.27;3.17;;;4.70;99.90;;;;;;5073255;28;20200;-68
2022/04/12 01:59:26;;;;;;;5.73;2.77;;;4.70;99.90;;;;;;5073061;28;20200;-68
2022/04/12 02:01:53;;;;;;;7.93;3.00;;;4.60;99.90;;;;;;5073205;28;20205;-68
2022/04/12 02:04:20;;;;;;;9.90;3.57;;;4.70;99.90;;;;;;5073092;28;20201;-69
2022/04/12 02:06:47;;;;;;;6.80;3.80;;;4.70;99.90;;;;;;5073148;28;20211;-68
2022/04/12 02:09:13;;;;;;;6.83;3.23;;;4.70;99.90;;;;;;5072534;28;20240;-68
2022/04/12 02:11:40;;;;;;;5.33;3.17;;;4.70;99.90;;;;;;5072872;28;20213;-68
2022/04/12 02:14:07;;;;;;;9.77;3.33;;;4.60;99.90;;;;;;5072795;28;20230;-68
2022/04/12 02:16:36;;;;;;;5.40;3.10;;;4.60;99.90;;;;;;5072755;28;20459;-68
2022/04/12 02:19:03;;;;;;;5.30;3.03;;;4.60;99.90;;;;;;5073419;28;20201;-68
2022/04/12 02:21:29;;;;;;;7.43;3.33;;;4.50;99.90;;;;;;5074111;28;20235;-67
2022/04/12 02:23:56;;;;;;;11.20;3.53;;;4.50;99.90;;;;;;5075607;28;20212;-67
2022/04/12 02:26:23;;;;;;;8.30;4.07;;;4.50;99.90;;;;;;5075065;28;20208;-67
2022/04/12 02:28:50;;;;;;;10.53;3.30;;;4.50;99.90;;;;;;5073056;28;20243;-68
2022/04/12 02:31:17;;;;;;;5.60;3.17;;;4.50;99.90;;;;;;5072740;28;20193;-68
2022/04/12 02:33:45;;;;;;;10.00;3.10;;;4.40;99.90;;;;;;5072556;28;20208;-67
2022/04/12 02:36:12;;;;;;;6.07;2.90;;;4.40;99.90;;;;;;5072530;28;20566;-68
2022/04/12 02:38:39;;;;;;;6.50;3.30;;;4.40;99.90;;;;;;5072569;28;20659;-68
2022/04/12 02:41:06;;;;;;;5.50;2.87;;;4.40;99.90;;;;;;5072521;28;20219;-67
2022/04/12 02:43:33;;;;;;;4.57;3.20;;;4.30;99.90;;;;;;5072047;28;20209;-68
2022/04/12 02:46:01;;;;;;;6.37;3.17;;;4.30;99.90;;;;;;5071904;28;20566;-67
2022/04/12 02:48:28;;;;;;;10.30;3.30;;;4.30;99.90;;;;;;5072041;28;20607;-67
2022/04/12 02:50:56;;;;;;;5.73;3.40;;;4.30;99.90;;;;;;5072346;28;20204;-68
2022/04/12 02:53:23;;;;;;;8.27;3.43;;;4.20;99.90;;;;;;5072169;28;20212;-68
2022/04/12 02:55:50;;;;;;;4.47;3.03;;;4.20;99.90;;;;;;5072359;28;20228;-68
2022/04/12 02:58:17;;;;;;;6.47;3.10;;;4.20;99.90;;;;;;5071806;28;20315;-68
2022/04/12 03:00:44;;;;;;;6.07;3.33;;;4.20;99.90;;;;;;5072116;28;20208;-68
2022/04/12 03:03:11;;;;;;;6.27;3.23;;;4.10;99.90;;;;;;5072056;28;20209;-68
2022/04/12 03:05:38;;;;;;;5.27;3.20;;;4.10;99.90;;;;;;5071622;28;20200;-68
2022/04/12 03:08:07;;;;;;;8.13;3.10;;;4.20;99.90;;;;;;5072158;28;20234;-69
2022/04/12 03:10:34;;;;;;;4.87;3.00;;;4.10;99.90;;;;;;5071670;28;20213;-67
2022/04/12 03:13:01;;;;;;;7.60;2.83;;;4.10;99.90;;;;;;5071850;28;20204;-68
2022/04/12 03:15:27;;;;;;;7.53;3.30;;;4.10;99.90;;;;;;5071869;28;20221;-69
2022/04/12 03:17:54;;;;;;;8.03;3.43;;;4.20;99.90;;;;;;5072026;28;20200;-69
2022/04/12 03:20:21;;;;;;;6.67;3.17;;;4.10;99.90;;;;;;5071912;28;20232;-68
2022/04/12 03:22:48;;;;;;;4.83;3.13;;;4.10;99.90;;;;;;5071454;28;20205;-69
2022/04/12 03:25:16;;;;;;;7.57;3.33;;;4.10;99.90;;;;;;5071477;28;20219;-67
2022/04/12 03:27:42;;;;;;;6.53;3.50;;;4.10;99.90;;;;;;5071949;28;20571;-68
2022/04/12 03:30:10;;;;;;;7.70;3.87;;;4.10;99.90;;;;;;5071182;28;20717;-68
2022/04/12 03:32:37;;;;;;;9.53;3.40;;;4.10;99.90;;;;;;5071737;28;20209;-67
2022/04/12 03:35:04;;;;;;;8.03;3.40;;;4.10;99.90;;;;;;5071612;28;20204;-68
2022/04/12 03:37:31;;;;;;;9.17;3.27;;;4.10;99.90;;;;;;5071764;28;20200;-68
2022/04/12 03:39:58;;;;;;;6.03;3.30;;;4.00;99.90;;;;;;5071685;28;20207;-68
2022/04/12 03:42:26;;;;;;;6.63;3.10;;;4.00;99.90;;;;;;5071774;28;20216;-69
2022/04/12 03:44:53;;;;;;;6.83;3.47;;;4.00;99.90;;;;;;5071721;28;20200;-67
2022/04/12 03:47:20;;;;;;;8.90;3.90;;;4.00;99.90;;;;;;5071866;28;20208;-68
2022/04/12 03:49:46;;;;;;;9.17;3.67;;;4.10;99.90;;;;;;5071474;28;20224;-68
2022/04/12 03:52:13;;;;;;;6.90;3.17;;;4.10;99.90;;;;;;5071272;28;20204;-68
2022/04/12 03:54:40;;;;;;;5.00;3.30;;;4.10;99.90;;;;;;5071427;28;20212;-68
2022/04/12 03:57:07;;;;;;;7.17;3.50;;;4.10;99.90;;;;;;5071268;28;20209;-67
2022/04/12 03:59:35;;;;;;;8.67;3.70;;;4.10;99.90;;;;;;5071826;28;20302;-69
2022/04/12 04:02:02;;;;;;;6.57;3.43;;;4.20;99.90;;;;;;5071075;28;20209;-66
2022/04/12 04:04:28;;;;;;;7.87;3.40;;;4.20;99.90;;;;;;5071171;28;20201;-68
2022/04/12 04:06:55;;;;;;;7.80;3.37;;;4.20;99.90;;;;;;5071051;28;20205;-68
2022/04/12 04:09:23;;;;;;;8.10;3.50;;;4.20;99.90;;;;;;5070897;28;20224;-67
2022/04/12 04:11:50;;;;;;;6.23;3.47;;;4.20;99.90;;;;;;5071350;28;20209;-67
2022/04/12 04:14:17;;;;;;;9.70;3.60;;;4.20;99.90;;;;;;5071363;28;20699;-68
2022/04/12 04:16:45;;;;;;;6.27;3.27;;;4.30;99.90;;;;;;5071386;28;20679;-68
2022/04/12 04:19:12;;;;;;;6.50;2.90;;;4.30;99.90;;;;;;5075035;28;20551;-68
2022/04/12 04:21:39;;;;;;;6.67;3.10;;;4.30;99.90;;;;;;5075105;28;20201;-68
2022/04/12 04:24:07;;;;;;;9.00;3.50;;;4.30;99.90;;;;;;5075051;28;20204;-68
2022/04/12 04:26:34;;;;;;;8.07;3.10;;;4.30;99.90;;;;;;5074586;28;20211;-67
2022/04/12 04:29:01;;;;;;;10.00;3.50;;;4.30;99.90;;;;;;5074317;28;20237;-68
2022/04/12 04:31:28;;;;;;;5.30;3.27;;;4.40;99.90;;;;;;5074580;28;20216;-68
2022/04/12 04:33:56;;;;;;;9.87;3.53;;;4.40;99.90;;;;;;5074431;28;20205;-68
2022/04/12 04:36:23;;;;;;;11.23;3.60;;;4.40;99.90;;;;;;5074430;28;20216;-68
2022/04/12 04:38:50;;;;;;;9.33;3.70;;;4.40;99.90;;;;;;5074626;28;20761;-68
2022/04/12 04:41:17;;;;;;;6.50;3.10;;;4.50;99.90;;;;;;5074557;28;20208;-68
2022/04/12 04:43:45;;;;;;;6.77;3.20;;;4.50;99.90;;;;;;5074831;28;20204;-67
2022/04/12 04:46:13;;;;;;;8.00;3.50;;;4.50;99.90;;;;;;5074722;28;20255;-68
2022/04/12 04:48:41;;;;;;;7.83;3.40;;;4.50;99.90;;;;;;5074227;28;20258;-69
2022/04/12 04:51:09;;;;;;;10.23;2.90;;;4.60;99.90;;;;;;5074662;28;20236;-67
2022/04/12 04:53:37;;;;;;;7.23;3.10;;;4.60;99.90;;;;;;5074199;28;20210;-67
2022/04/12 04:56:05;;;;;;;8.57;3.70;;;4.60;99.90;;;;;;5074282;28;20213;-69
2022/04/12 04:58:31;;;;;;;7.70;3.20;;;4.70;99.90;;;;;;5074346;28;20200;-68
2022/04/12 05:00:58;;;;;;;6.33;3.27;;;4.70;99.90;;;;;;5073574;28;20208;-69
2022/04/12 05:03:27;;;;;;;7.77;3.50;;;4.70;99.90;;;;;;5074267;28;20205;-69
2022/04/12 05:05:54;;;;;;;6.40;3.27;;;4.70;99.90;;;;;;5073683;28;20204;-68
2022/04/12 05:08:22;;;;;;;8.03;3.30;;;4.70;99.90;;;;;;5074243;28;20201;-67
2022/04/12 05:10:49;;;;;;;6.67;3.67;;;4.80;99.90;;;;;;5073896;28;20233;-68
2022/04/12 05:13:16;;;;;;;8.30;3.40;;;4.80;99.90;;;;;;5074113;28;20582;-67
2022/04/12 05:15:42;;;;;;;5.83;2.80;;;4.80;99.90;;;;;;5073762;28;20308;-67
2022/04/12 05:18:10;;;;;;;6.23;2.80;;;4.80;99.90;;;;;;5073745;28;20207;-68
2022/04/12 05:20:37;;;;;;;13.63;3.80;;;4.80;99.90;;;;;;5074013;28;20390;-68
2022/04/12 05:23:04;;;;;;;8.47;3.43;;;4.80;99.90;;;;;;5073496;28;20223;-68
2022/04/12 05:25:32;;;;;;;7.57;3.37;;;4.90;99.90;;;;;;5073834;28;20298;-67
2022/04/12 05:27:59;;;;;;;10.10;3.50;;;4.90;99.90;;;;;;5073193;28;20288;-69
2022/04/12 05:30:26;;;;;;;11.47;3.30;;;5.00;99.90;;;;;;5073448;28;20247;-68
2022/04/12 05:32:52;;;;;;;9.73;2.77;;;5.00;99.90;;;;;;5073293;28;20239;-67
2022/04/12 05:35:19;;;;;;;7.50;3.00;;;5.00;99.90;;;;;;5073629;28;20208;-69
2022/04/12 05:37:48;;;;;;;12.00;3.73;;;5.10;99.90;;;;;;5073207;28;20207;-69
2022/04/12 05:40:18;;;;;;;7.27;3.10;;;5.10;99.90;;;;;;5073801;28;20224;-69
2022/04/12 05:42:47;;;;;;;10.43;3.50;;;5.10;99.90;;;;;;5073480;28;20205;-69
2022/04/12 05:45:15;;;;;;;10.07;3.70;;;5.20;99.90;;;;;;5073542;28;20204;-69
2022/04/12 05:47:43;;;;;;;8.77;3.70;;;5.20;99.90;;;;;;5073037;28;20211;-68
2022/04/12 05:50:11;;;;;;;10.17;3.67;;;5.30;99.90;;;;;;5072988;28;20220;-67
2022/04/12 05:52:39;;;;;;;11.53;3.90;;;5.40;99.90;;;;;;5073185;28;20212;-68
2022/04/12 05:55:08;;;;;;;7.20;3.60;;;5.40;99.90;;;;;;5073306;28;20207;-69
2022/04/12 05:57:37;;;;;;;8.03;3.80;;;5.50;99.90;;;;;;5072742;28;20204;-67
2022/04/12 06:00:07;;;;;;;6.53;3.47;;;5.60;99.90;;;;;;5073197;28;20205;-69
2022/04/12 06:02:34;;;;;;;8.87;3.67;;;5.70;99.90;;;;;;5073055;28;20669;-68
2022/04/12 06:05:01;;;;;;;11.37;3.67;;;5.70;99.90;;;;;;5073243;28;20207;-69
2022/04/12 06:07:32;;;;;;;9.53;3.77;;;5.80;99.90;;;;;;5073074;28;20219;-67
2022/04/12 06:10:00;;;;;;;11.33;3.80;;;5.80;99.90;;;;;;5072761;28;20709;-68
2022/04/12 06:12:27;;;;;;;6.67;3.07;;;5.90;99.90;;;;;;5072686;28;20209;-68
2022/04/12 06:14:54;;;;;;;7.60;3.97;;;6.00;99.90;;;;;;5072511;28;20710;-68
2022/04/12 06:17:23;;;;;;;6.37;3.50;;;6.00;99.90;;;;;;5072329;28;20204;-68
2022/04/12 06:19:49;;;;;;;6.60;3.07;;;6.10;99.90;;;;;;5072509;28;20567;-68
2022/04/12 06:22:16;;;;;;;10.10;3.57;;;6.10;99.90;;;;;;5073007;28;20282;-69
2022/04/12 06:24:43;;;;;;;7.37;3.47;;;6.10;99.90;;;;;;5072658;28;20212;-68
2022/04/12 06:27:10;;;;;;;10.73;3.20;;;6.20;99.90;;;;;;5072301;28;20205;-69
2022/04/12 06:29:37;;;;;;;6.67;2.90;;;6.20;99.90;;;;;;5072015;28;20232;-69
2022/04/12 06:32:04;;;;;;;5.93;2.97;;;6.20;99.90;;;;;;5072156;28;20200;-68
2022/04/12 06:34:32;;;;;;;7.17;2.70;;;6.20;99.90;;;;;;5072286;28;20226;-68
2022/04/12 06:36:59;;;;;;;10.33;3.10;;;6.30;99.90;;;;;;5072413;28;20682;-69
2022/04/12 06:39:26;;;;;;;9.20;3.27;;;6.30;99.90;;;;;;5071745;28;20208;-69
2022/04/12 06:41:53;;;;;;;7.53;3.10;;;6.40;99.90;;;;;;5072091;28;20227;-68
2022/04/12 06:44:20;;;;;;;8.03;3.07;;;6.50;99.90;;;;;;5072239;28;20510;-68
2022/04/12 06:46:46;;;;;;;9.37;2.83;;;6.50;99.90;;;;;;5072162;28;20219;-68
2022/04/12 06:49:13;;;;;;;6.73;3.23;;;6.60;99.90;;;;;;5072217;28;20204;-69
2022/04/12 06:51:41;;;;;;;7.23;2.90;;;6.60;99.90;;;;;;5071931;28;20200;-68
2022/04/12 06:54:08;;;;;;;5.63;3.07;;;6.60;99.90;;;;;;5072150;28;20238;-67
2022/04/12 06:56:35;;;;;;;7.03;3.10;;;6.60;99.90;;;;;;5071787;28;20627;-67
2022/04/12 06:59:01;;;;;;;8.93;3.37;;;6.70;99.90;;;;;;5072185;28;20231;-69
2022/04/12 07:01:28;;;;;;;7.60;3.10;;;6.80;99.90;;;;;;5071739;28;20208;-68
2022/04/12 07:03:55;;;;;;;5.97;3.27;;;6.80;99.90;;;;;;5071731;28;20208;-70
2022/04/12 07:06:22;;;;;;;7.60;3.40;;;6.90;99.90;;;;;;5072180;28;20204;-67
2022/04/12 07:08:50;;;;;;;8.67;3.47;;;7.00;99.90;;;;;;5071858;28;20211;-68
2022/04/12 07:11:17;;;;;;;6.80;3.17;;;7.00;99.90;;;;;;5071815;28;20721;-68
2022/04/12 07:13:43;;;;;;;7.77;3.13;;;7.10;99.90;;;;;;5071568;28;20239;-68
2022/04/12 07:16:10;;;;;;;5.37;2.77;;;7.20;99.90;;;;;;5071807;28;20209;-68
2022/04/12 07:18:37;;;;;;;6.97;3.23;;;7.30;99.90;;;;;;5071308;28;20215;-67
2022/04/12 07:21:04;;;;;;;7.00;2.97;;;7.30;99.90;;;;;;5071514;28;20255;-68
2022/04/12 07:23:31;;;;;;;8.00;2.80;;;7.40;99.90;;;;;;5071679;28;20201;-68
2022/04/12 07:25:59;;;;;;;8.20;3.00;;;7.50;99.90;;;;;;5071686;28;20208;-69
2022/04/12 07:28:26;;;;;;;6.53;2.57;;;7.60;99.90;;;;;;5071462;28;20211;-67
2022/04/12 07:30:53;;;;;;;5.13;2.70;;;7.70;99.90;;;;;;5071556;28;20223;-68
2022/04/12 07:33:19;;;;;;;6.07;2.50;;;7.80;99.90;;;;;;5071694;28;20217;-69
2022/04/12 07:35:47;;;;;;;6.43;2.40;;;7.90;99.90;;;;;;5071960;28;20200;-67
2022/04/12 07:38:13;;;;;;;5.37;2.50;;;8.00;99.90;;;;;;5071690;28;20602;-68
2022/04/12 07:40:40;;;;;;;11.13;2.87;;;8.10;99.90;;;;;;5071484;28;20204;-68
2022/04/12 07:43:08;;;;;;;6.30;2.60;;;8.10;99.90;;;;;;5071318;28;20201;-68
2022/04/12 07:45:36;;;;;;;4.80;2.43;;;8.10;99.90;;;;;;5071097;28;20215;-68
2022/04/12 07:48:07;;;;;;;3.87;2.10;;;8.10;99.90;;;;;;5072544;28;20209;-69
2022/04/12 07:50:34;;;;;;;5.20;2.57;;;8.20;99.90;;;;;;5073168;28;20650;-68
2022/04/12 07:53:00;;;;;;;10.10;2.53;;;8.20;99.90;;;;;;5075722;28;20200;-68
2022/04/12 07:55:27;;;;;;;6.03;2.47;;;8.20;99.90;;;;;;5075474;28;20208;-67
2022/04/12 07:57:54;;;;;;;8.33;2.73;;;8.30;99.90;;;;;;5075301;28;20205;-67
2022/04/12 08:00:22;;;;;;;5.10;2.20;;;8.30;99.90;;;;;;5075127;28;20211;-68
2022/04/12 08:02:49;;;;;;;6.80;2.33;;;8.40;99.90;;;;;;5075299;28;20234;-69
2022/04/12 08:05:17;;;;;;;4.40;2.20;;;8.60;99.90;;;;;;5074935;28;20204;-67
2022/04/12 08:07:47;;;;;;;5.37;2.23;;;8.70;99.90;;;;;;5074927;28;20207;-67
2022/04/12 08:10:14;;;;;;;5.87;2.23;;;8.80;99.90;;;;;;5075222;28;20299;-69
2022/04/12 08:12:41;;;;;;;5.90;2.47;;;8.80;99.90;;;;;;5075131;28;20204;-68
2022/04/12 08:15:08;;;;;;;7.57;2.40;;;8.80;99.90;;;;;;5074824;28;20224;-69
2022/04/12 08:17:37;;;;;;;6.10;2.50;;;8.80;99.90;;;;;;5074877;28;20208;-68
2022/04/12 08:20:05;;;;;;;6.90;2.47;;;8.90;99.90;;;;;;5075128;28;20555;-68
2022/04/12 08:22:32;;;;;;;5.87;2.50;;;8.90;99.90;;;;;;5074527;28;20631;-67
2022/04/12 08:24:59;;;;;;;15.03;2.50;;;8.90;99.90;;;;;;5074664;28;20231;-69
2022/04/12 08:27:26;;;;;;;3.80;2.17;;;8.90;99.90;;;;;;5074480;28;20204;-68
2022/04/12 08:29:53;;;;;;;5.27;2.47;;;9.00;99.90;;;;;;5074352;28;20232;-68
2022/04/12 08:32:20;;;;;;;5.63;2.10;;;9.00;99.90;;;;;;5074117;28;20255;-69
2022/04/12 08:34:48;;;;;;;6.20;2.50;;;9.10;99.90;;;;;;5074701;28;20228;-69
2022/04/12 08:37:15;;;;;;;7.70;2.17;;;9.10;99.90;;;;;;5074583;28;20201;-68
2022/04/12 08:39:42;;;;;;;6.30;2.67;;;9.20;99.90;;;;;;5074721;28;20212;-68
2022/04/12 08:42:09;;;;;;;8.27;2.37;;;9.30;99.90;;;;;;5074100;28;20299;-69
2022/04/12 08:44:36;;;;;;;11.90;2.83;;;9.30;99.90;;;;;;5074546;28;20207;-68
2022/04/12 08:47:05;;;;;;;7.43;2.37;;;9.30;99.90;;;;;;5074409;28;20254;-68
2022/04/12 08:49:32;;;;;;;5.00;2.43;;;9.20;99.90;;;;;;5073929;28;20211;-69
2022/04/12 08:52:01;;;;;;;4.90;2.10;;;9.20;99.90;;;;;;5074072;28;20243;-69
2022/04/12 08:54:29;;;;;;;5.10;2.43;;;9.30;99.90;;;;;;5074287;28;20215;-68
2022/04/12 08:56:57;;;;;;;4.43;2.13;;;9.50;99.90;;;;;;5074275;28;20215;-68
2022/04/12 08:59:25;;;;;;;4.87;2.13;;;9.50;99.90;;;;;;5074076;28;20686;-69
2022/04/12 09:01:52;;;;;;;8.13;2.13;;;9.40;99.90;;;;;;5074494;28;20662;-70
2022/04/12 09:04:20;;;;;;;6.77;2.40;;;9.40;99.90;;;;;;5072978;28;20201;-68
2022/04/12 09:06:51;;;;;;;6.87;2.30;;;9.40;99.90;;;;;;5073834;28;20205;-68
2022/04/12 09:09:21;;;;;;;6.53;2.33;;;9.40;99.90;;;;;;5074049;28;20477;-66
2022/04/12 09:11:57;;;;;;;4.57;2.20;;;9.40;99.90;;;;;;5074369;28;20216;-68
2022/04/12 09:14:25;;;;;;;3.50;1.97;;;9.40;99.90;;;;;;5073888;28;20228;-69
2022/04/12 09:16:52;;;;;;;5.30;1.90;;;9.40;99.90;;;;;;5073638;28;20219;-69
2022/04/12 09:19:38;;;;;;;4.67;2.23;;;9.40;99.90;;;;;;5073758;28;20212;-69
2022/04/12 09:22:11;;;;;;;3.70;2.10;;;9.60;99.90;;;;;;5073925;28;20238;-68
2022/04/12 09:24:45;;;;;;;4.57;1.97;;;9.70;99.90;;;;;;5074132;28;20235;-69
2022/04/12 09:27:13;;;;;;;4.67;2.00;;;9.70;99.90;;;;;;5073634;28;20603;-68
2022/04/12 09:29:45;;;;;;;4.23;1.83;;;9.80;99.90;;;;;;5073291;28;20240;-68
2022/04/12 09:32:14;;;;;;;5.07;1.80;;;9.80;99.10;;;;;;5073622;28;20270;-68
2022/04/12 09:34:42;;;;;;;3.77;1.83;;;9.80;98.50;;;;;;5073239;28;20204;-69
2022/04/12 09:37:22;;;;;;;4.77;1.90;;;9.80;98.40;;;;;;5073466;28;20669;-69
2022/04/12 09:40:11;;;;;;;4.27;1.77;;;9.80;98.60;;;;;;5073602;28;20289;-67
2022/04/12 09:42:45;;;;;;;4.80;2.07;;;9.90;97.80;;;;;;5073709;28;20216;-67
2022/04/12 09:45:13;;;;;;;4.33;2.10;;;10.00;98.40;;;;;;5073378;28;20185;-67
2022/04/12 09:47:40;;;;;;;4.67;2.33;;;10.00;96.80;;;;;;5073016;28;20209;-69
2022/04/12 09:50:09;;;;;;;4.03;1.83;;;10.00;97.10;;;;;;5072975;28;20213;-69
2022/04/12 09:52:36;;;;;;;6.20;2.03;;;10.00;98.00;;;;;;5073146;28;20211;-67
2022/04/12 09:55:06;;;;;;;6.17;2.10;;;10.00;97.80;;;;;;5073146;28;20200;-68
2022/04/12 09:57:35;;;;;;;6.50;2.00;;;10.00;97.80;;;;;;5073258;28;20200;-68
2022/04/12 10:00:02;;;;;;;4.43;1.80;;;10.10;97.10;;;;;;5072714;28;20204;-67
2022/04/12 10:02:29;;;;;;;3.63;1.70;;;10.10;96.30;;;;;;5073156;28;20201;-68
2022/04/12 10:04:57;;;;;;;4.43;1.80;;;10.10;97.30;;;;;;5072821;28;20238;-68
2022/04/12 10:07:25;;;;;;;4.30;1.80;;;10.10;96.90;;;;;;5072908;28;20209;-67
2022/04/12 10:09:53;;;;;;;4.70;1.77;;;10.10;95.30;;;;;;5072913;28;20245;-68
2022/04/12 10:12:21;;;;;;;3.47;1.63;;;10.20;94.10;;;;;;5072721;28;20224;-68
2022/04/12 10:14:49;;;;;;;3.80;1.63;;;10.20;94.30;;;;;;5072535;28;20204;-68
2022/04/12 10:17:17;;;;;;;5.23;2.00;;;10.10;94.50;;;;;;5072284;28;20295;-67
2022/04/12 10:19:44;;;;;;;2.77;1.63;;;10.10;94.50;;;;;;5072741;28;20213;-67
2022/04/12 10:22:11;;;;;;;4.37;2.00;;;10.20;92.80;;;;;;5072317;28;20323;-69
2022/04/12 10:24:39;;;;;;;4.10;1.67;;;10.40;92.70;;;;;;5072747;28;20254;-67
2022/04/12 10:27:07;;;;;;;4.30;1.70;;;10.50;92.40;;;;;;5072425;28;20691;-69
2022/04/12 10:29:34;;;;;;;4.23;1.70;;;10.30;92.50;;;;;;5072335;28;20233;-68
2022/04/12 10:32:05;;;;;;;4.80;1.87;;;10.20;93.00;;;;;;5072215;28;20595;-68
2022/04/12 10:34:32;;;;;;;8.30;2.03;;;10.10;92.90;;;;;;5072313;28;20230;-68
2022/04/12 10:37:05;;;;;;;3.50;1.67;;;10.10;92.00;;;;;;5072296;28;20657;-68
2022/04/12 10:39:38;;;;;;;4.93;1.83;;;10.10;92.00;;;;;;5072637;28;20201;-68
2022/04/12 10:42:08;;;;;;;6.33;2.00;;;10.20;92.00;;;;;;5072182;28;20206;-67
2022/04/12 10:44:41;;;;;;;2.73;1.60;;;10.30;92.20;;;;;;5072518;28;20649;-67
2022/04/12 10:47:22;;;;;;;3.83;1.60;;;10.30;92.10;;;;;;5072098;28;20201;-68
2022/04/12 10:49:53;;;;;;;3.70;1.80;;;10.30;92.40;;;;;;5072567;28;20185;-68
2022/04/12 10:52:19;;;;;;;3.63;1.73;;;10.30;92.30;;;;;;5071938;28;20224;-68
2022/04/12 10:54:48;;;;;;;7.13;1.70;;;10.40;92.20;;;;;;5071915;28;20208;-69
2022/04/12 10:57:26;;;;;;;2.03;1.50;;;10.40;91.60;;;;;;5072216;28;20204;-68
2022/04/12 10:59:57;;;;;;;3.47;1.60;;;10.40;91.90;;;;;;5071965;28;20684;-68
2022/04/12 11:02:30;;;;;;;3.43;1.77;;;10.50;91.50;;;;;;5072352;28;20185;-70
2022/04/12 11:04:57;;;;;;;3.20;2.03;;;10.60;91.60;;;;;;5072071;28;20185;-69
2022/04/12 11:07:31;;;;;;;5.53;1.80;;;10.60;91.40;;;;;;5072049;28;20197;-68
2022/04/12 11:10:21;;;;;;;3.20;1.50;;;10.60;90.40;;;;;;5071433;28;20204;-68
2022/04/12 11:12:49;;;;;;;3.97;1.63;;;10.50;90.40;;;;;;5072110;28;20235;-67
2022/04/12 11:15:24;;;;;;;4.70;1.40;;;10.40;90.70;;;;;;5072177;28;20207;-67
2022/04/12 11:18:08;;;;;;;4.10;1.60;;;10.40;90.90;;;;;;5071739;28;20561;-67
2022/04/12 11:20:36;;;;;;;3.97;1.80;;;10.50;90.70;;;;;;5071635;28;20275;-66
2022/04/12 11:23:08;;;;;;;2.63;1.40;;;10.60;90.60;;;;;;5071842;28;20200;-66
2022/04/12 11:25:36;;;;;;;2.77;1.50;;;10.70;90.20;;;;;;5071945;28;20185;-66
2022/04/12 11:28:03;;;;;;;3.27;1.60;;;10.60;90.20;;;;;;5071320;28;20211;-67
2022/04/12 11:30:30;;;;;;;5.63;1.67;;;10.60;90.50;;;;;;5071337;28;20606;-68
2022/04/12 11:32:59;;;;;;;3.33;1.53;;;10.70;90.90;;;;;;5071545;28;20228;-66
2022/04/12 11:35:26;;;;;;;3.47;1.60;;;10.80;91.00;;;;;;5071889;28;20206;-66
2022/04/12 11:37:53;;;;;;;5.53;1.87;;;10.80;87.40;;;;;;5071342;28;20215;-67
2022/04/12 11:40:20;;;;;;;3.50;1.90;;;10.70;89.20;;;;;;5071512;28;20205;-67
2022/04/12 11:42:46;;;;;;;5.20;1.60;;;10.60;89.90;;;;;;5071663;28;20200;-66
2022/04/12 11:45:13;;;;;;;5.87;1.50;;;10.60;90.40;;;;;;5071675;28;20251;-67
2022/04/12 11:47:44;;;;;;;1.50;1.40;;;10.60;90.40;;;;;;5071769;28;20671;-67
2022/04/12 11:50:19;;;;;;;4.67;1.70;;;10.50;90.40;;;;;;5071144;28;20219;-67
2022/04/12 11:52:46;;;;;;;4.20;1.80;;;10.40;90.90;;;;;;5071436;28;20630;-66
2022/04/12 11:55:14;;;;;;;3.00;1.60;;;10.40;90.30;;;;;;5071574;28;20254;-67
2022/04/12 11:57:41;;;;;;;4.17;1.70;;;10.40;90.70;;;;;;5071497;28;20208;-67
2022/04/12 12:00:09;;;;;;;3.23;1.63;;;10.50;90.80;;;;;;5071110;28;20207;-68
2022/04/12 12:02:38;;;;;;;3.07;1.70;;;10.50;90.80;;;;;;5071232;28;20200;-66
2022/04/12 12:05:08;;;;;;;5.83;1.83;;;10.40;91.20;;;;;;5071233;28;20208;-66
2022/04/12 12:07:38;;;;;;;3.20;2.17;;;10.30;91.30;;;;;;5071476;28;20204;-67
2022/04/12 12:10:07;;;;;;;2.87;1.40;;;10.40;91.50;;;;;;5071692;28;20539;-67
2022/04/12 12:12:37;;;;;;;3.77;1.70;;;10.30;91.20;;;;;;5071271;28;20237;-67
2022/04/12 12:15:17;;;;;;;2.90;1.83;;;10.30;91.20;;;;;;5071222;28;20205;-66
2022/04/12 12:17:45;;;;;;;4.80;1.90;;;10.30;91.00;;;;;;5071209;28;20192;-66
2022/04/12 12:20:13;;;;;;;3.00;1.40;;;10.40;91.40;;;;;;5071288;28;20205;-66
2022/04/12 12:22:44;;;;;;;5.00;1.50;;;10.50;90.70;;;;;;5071177;28;20208;-67
2022/04/12 12:25:18;;;;;;;4.00;1.80;;;10.50;90.60;;;;;;5071124;28;20186;-67
2022/04/12 12:27:49;;;;;;;2.50;1.77;;;10.60;90.70;;;;;;5071385;28;20188;-67
2022/04/12 12:30:18;;;;;;;3.63;1.63;;;10.50;90.80;;;;;;5070990;28;20237;-66
2022/04/12 12:32:45;;;;;;;3.60;1.73;;;10.60;91.00;;;;;;5070873;28;20235;-68
2022/04/12 12:35:13;;;;;;;1.70;1.40;;;10.50;90.60;;;;;;5071117;28;20254;-68
2022/04/12 12:37:43;;;;;;;5.53;1.70;;;10.50;90.80;;;;;;5071094;28;20663;-67
2022/04/12 12:40:19;;;;;;;2.70;1.40;;;10.40;90.40;;;;;;5074727;28;20209;-68
2022/04/12 12:42:47;;;;;;;4.63;1.70;;;10.30;93.10;;;;;;5074263;28;20201;-66
2022/04/12 12:45:15;;;;;;;2.67;1.70;;;10.20;94.40;;;;;;5074707;28;20670;-69
2022/04/12 12:47:43;;;;;;;2.80;1.43;;;10.10;94.80;;;;;;5074115;28;20211;-67
2022/04/12 12:50:11;;;;;;;5.00;1.80;;;10.10;95.10;;;;;;5074624;28;20212;-66
2022/04/12 12:52:38;;;;;;;6.20;1.77;;;10.00;95.00;;;;;;5074034;28;20231;-66
2022/04/12 12:55:09;;;;;;;3.93;1.60;;;10.00;95.20;;;;;;5074562;28;20566;-67
2022/04/12 12:57:40;;;;;;;2.33;1.57;;;9.90;95.30;;;;;;5074451;28;20662;-67
2022/04/12 13:00:10;;;;;;;3.80;1.83;;;9.90;96.10;;;;;;5074321;28;20274;-66